• Join FlightAware (Why Join?)
  • Login
  • US Flag 
05:34PM EDT


 

Airport Tracker/Info


-or-


 

Live Flight TrackerFlight Track Log ✈ AVA17 ✈ 10-Jul-2013 ✈ LEMD / MAD - SKRG / MDE

Flight Track Log - Related Links

Times and Time Zones

All times are in EDT time to prevent confusion due to time zone crossing. See the AVA17 flight status page for this flight to view local times or setup timezone preferences in your user account.

Time Position Orientation Groundspeed Altitude Reporting Facility
EDT Latitude Longitude Course Direction KTS MPH feet Rate Location/Type
11:13AM 40.4380 -3.5290 142° Southeast 195 224 3,400  Level FlightAware
11:13AM 40.4260 -3.5160 140° Southeast 196 226 3,900 1,500 Climbing FlightAware
11:14AM 40.4130 -3.5030 143° Southeast 197 227 4,400 1,560 Climbing FlightAware
11:14AM 40.3900 -3.4800 143° Southeast 201 231 5,100 900 Climbing FlightAware
11:15AM 40.3890 -3.4790 143° Southeast 244 281 5,900 1,200 Climbing FlightAware
11:16AM 40.3020 -3.3910 142° Southeast 265 305 7,200 2,340 Climbing FlightAware
11:16AM 40.2860 -3.3810 155° Southeast 263 303 7,700 1,980 Climbing FlightAware
11:16AM 40.2720 -3.3810 180° South 259 298 8,000 1,920 Climbing FlightAware
11:16AM 40.2550 -3.3900 202° Southwest 266 306 8,500 1,860 Climbing FlightAware
11:17AM 40.2200 -3.4120 206° Southwest 265 305 9,500 1,740 Climbing FlightAware
11:17AM 40.2080 -3.4270 224° Southwest 272 313 9,900 1,980 Climbing FlightAware
11:17AM 40.2030 -3.4430 248° West 270 311 10,300 1,500 Climbing FlightAware
11:18AM 40.2110 -3.5190 278° West 299 344 11,300 1,020 Climbing FlightAware
11:19AM 40.2220 -3.5950 281° West 334 384 11,800 780 Climbing FlightAware
11:20AM 40.2340 -3.6810 280° West 368 423 12,400 1,440 Climbing FlightAware
11:20AM 40.2480 -3.7790 281° West 377 434 13,900 1,920 Climbing FlightAware
11:21AM 40.2620 -3.8790 280° West 384 442 15,300 1,980 Climbing FlightAware
11:22AM 40.2530 -3.9740 263° West 386 444 16,800 1,920 Climbing FlightAware
11:22AM 40.2380 -4.0650 258° West 391 450 17,900 1,500 Climbing FlightAware
11:23AM 40.2380 -4.2040 270° West 402 463 19,300 1,440 Climbing FlightAware
11:24AM 40.2530 -4.2860 284° West 406 467 20,200 1,500 Climbing FlightAware
11:25AM 40.2690 -4.3810 282° West 412 474 21,200 1,440 Climbing FlightAware
11:25AM 40.2880 -4.4900 283° West 416 479 22,300 1,440 Climbing FlightAware
11:26AM 40.3050 -4.5890 283° West 419 482 23,300 1,320 Climbing FlightAware
11:27AM 40.3240 -4.7030 282° West 425 489 24,200 1,200 Climbing FlightAware
11:27AM 40.3420 -4.8060 283° West 430 495 25,000 1,080 Climbing FlightAware
11:28AM 40.3590 -4.9060 283° West 434 499 25,700 960 Climbing FlightAware
11:29AM 40.3760 -5.0110 282° West 437 503 26,400 960 Climbing FlightAware
11:29AM 40.3910 -5.1020 282° West 443 510 26,900 780 Climbing FlightAware
11:30AM 40.4120 -5.2290 262° West 444 511 27,700 240 Climbing FlightAware
11:32AM 40.3498 -5.4708 262° West  Level Estimated
11:32AM 40.4520 -5.5010 281° West 444 511 27,700  Level FlightAware
11:33AM 40.4730 -5.6430 281° West 444 511 27,700 720 Level FlightAware
11:34AM 40.5160 -5.8720 284° West 459 528 29,000 900 Climbing FlightAware
11:35AM 40.5370 -6.0010 282° West 459 528 29,000  Level FlightAware
11:36AM 40.5530 -6.1050 281° West 463 533 29,000  Level FlightAware
11:36AM 40.5690 -6.2280 280° West 464 534 29,000  Level FlightAware
11:37AM 40.5690 -6.3860 270° West 466 536 29,000  Level FlightAware
11:38AM 40.5780 -6.5090 276° West 464 534 29,000  Level FlightAware
11:39AM 40.5890 -6.6160 278° West 465 535 29,000  Level FlightAware
11:39AM 40.6000 -6.7230 278° West 465 535 29,000  Level FlightAware
11:40AM 40.6120 -6.8370 278° West 464 534 29,000  Level FlightAware
11:40AM 40.6220 -6.9400 277° West 465 535 29,000  Level FlightAware
11:41AM 40.6330 -7.0460 278° West 466 536 29,000  Level FlightAware
11:42AM 40.6450 -7.1650 278° West 467 537 29,000  Level FlightAware
11:42AM 40.6550 -7.2760 277° West 466 536 29,000  Level FlightAware
11:43AM 40.6680 -7.4010 278° West 465 535 29,000  Level FlightAware
11:44AM 40.6790 -7.5220 277° West 466 536 29,000  Level FlightAware
11:46AM 40.7100 -7.8410 277° West 470 541 29,000  Level FlightAware
11:47AM 40.7240 -8.0020 277° West 469 540 29,000  Level FlightAware
11:48AM 40.7370 -8.1430 277° West 471 542 29,000  Level FlightAware
11:48AM 40.7500 -8.2810 277° West 472 543 29,000  Level FlightAware
11:49AM 40.7610 -8.4100 276° West 471 542 29,000  Level FlightAware
11:50AM 40.7710 -8.5250 277° West 471 542 29,000  Level FlightAware
11:51AM 40.7840 -8.6680 277° West 29,000  Level FlightAware
11:51AM 40.7940 -8.7920 276° West 470 541 29,000  Level FlightAware
11:52AM 40.8040 -8.9060 277° West 471 542 29,000  Level FlightAware
11:53AM 40.8130 -9.0190 276° West 472 543 29,000 300 Level FlightAware
11:53AM 40.8210 -9.1200 276° West 474 545 29,400 960 Climbing FlightAware
11:54AM 40.8320 -9.2460 277° West 471 542 30,300 1,020 Climbing FlightAware
11:55AM 40.8390 -9.3590 275° West 470 541 30,900 960 Climbing FlightAware
11:55AM 40.8360 -9.4660 268° West 471 542 31,500 840 Climbing FlightAware
11:56AM 40.8180 -9.5950 260° West 472 543 32,100 780 Climbing FlightAware
11:57AM 40.7820 -9.7270 250° West 470 541 32,800 660 Climbing FlightAware
11:58AM 40.7500 -9.8350 249° West 468 539 33,500 660 Climbing FlightAware
11:59AM 40.7170 -9.9410 248° West 466 536 34,100 840 Climbing FlightAware
12:01PM 40.5810 -10.3770 248° West 461 531 36,000 600 Climbing FlightAware
12:02PM 40.5480 -10.4820 248° West 460 529 36,000  Level FlightAware
12:02PM 40.5110 -10.5970 247° West 460 529 36,000  Level FlightAware
12:03PM 40.4760 -10.7090 248° West 458 527 36,000  Level FlightAware
12:04PM 40.4460 -10.8020 247° West 458 527 36,000  Level FlightAware
12:04PM 40.4580 -10.7670 66° East 458 527 36,000  Level FlightAware
12:05PM 40.4130 -10.9070 247° West 457 526 36,000  Level FlightAware
12:06PM 40.3810 -11.0060 247° West 458 527 36,000  Level FlightAware
12:07PM 40.3360 -11.1440 247° West 458 527 36,000  Level FlightAware
12:08PM 40.2410 -11.4360 247° West 459 528 36,000  Level FlightAware
12:09PM 40.2030 -11.5540 247° West 458 527 36,000  Level FlightAware
12:10PM 40.1440 -11.7340 247° West 457 526 36,000  Level FlightAware
12:11PM 40.0840 -11.9180 247° West 457 526 36,000  Level FlightAware
12:12PM 40.0200 -12.1030 246° West 453 521 36,000  Level FlightAware
12:13PM 39.9940 -12.1800 246° West 453 521 36,000  Level FlightAware
12:14PM 39.9420 -12.3330 246° West 453 521 36,000  Level FlightAware
12:14PM 39.9330 -12.3580 245° Southwest 453 521 36,000  Level FlightAware
12:17PM 39.8180 -12.6930 246° West 453 521 36,000  Level FlightAware
12:18PM 39.7870 -12.7840 246° West 453 521 36,000  Level FlightAware
12:18PM 39.7630 -12.8560 247° West 453 521 36,000  Level FlightAware
12:19PM 39.7360 -12.9340 246° West 453 521 36,000  Level FlightAware
12:20PM 39.7010 -13.0360 246° West 453 521 36,000  Level FlightAware
12:20PM 39.6750 -13.1120 246° West 453 521 36,000  Level FlightAware
12:21PM 39.6480 -13.1900 246° West 453 521 36,000  Level FlightAware
12:24PM 39.5714 -13.5969 256° West  Level Estimated
12:25PM 39.5404 -13.7594 256° West  Level Estimated
12:26PM 39.5091 -13.9218 256° West  Level Estimated
12:27PM 39.4776 -14.0840 256° West  Level Estimated
12:28PM 39.4459 -14.2461 256° West  Level Estimated
12:29PM 39.4140 -14.4080 256° West  Level Estimated
12:30PM 39.3818 -14.5698 256° West  Level Estimated
12:31PM 39.3494 -14.7314 256° West  Level Estimated
12:32PM 39.3168 -14.8929 255° West  Level Estimated
12:33PM 39.2840 -15.0542 255° West  Level Estimated
12:34PM 39.2509 -15.2154 255° West  Level Estimated
12:35PM 39.2176 -15.3764 255° West  Level Estimated
12:36PM 39.1841 -15.5373 255° West  Level Estimated
12:37PM 39.1504 -15.6980 255° West  Level Estimated
12:38PM 39.1165 -15.8586 255° West  Level Estimated
12:39PM 39.0823 -16.0190 255° West  Level Estimated
12:40PM 39.0479 -16.1792 255° West  Level Estimated
12:41PM 39.0133 -16.3393 255° West  Level Estimated
12:42PM 38.9785 -16.4993 254° West  Level Estimated
12:43PM 38.9435 -16.6590 254° West  Level Estimated
12:44PM 38.9082 -16.8187 254° West  Level Estimated
12:45PM 38.8727 -16.9781 254° West  Level Estimated
12:46PM 38.8371 -17.1374 254° West  Level Estimated
12:47PM 38.8012 -17.2966 254° West  Level Estimated
12:48PM 38.7650 -17.4555 254° West  Level Estimated
12:49PM 38.7287 -17.6144 254° West  Level Estimated
12:50PM 38.6921 -17.7730 254° West  Level Estimated
12:51PM 38.6554 -17.9315 254° West  Level Estimated
12:52PM 38.6184 -18.0899 253° West  Level Estimated
12:53PM 38.5812 -18.2480 253° West  Level Estimated
12:54PM 38.5438 -18.4060 253° West  Level Estimated
12:55PM 38.5062 -18.5639 253° West  Level Estimated
12:56PM 38.4684 -18.7215 253° West  Level Estimated
12:57PM 38.4303 -18.8790 253° West  Level Estimated
12:58PM 38.3921 -19.0364 253° West  Level Estimated
12:59PM 38.3536 -19.1936 253° West  Level Estimated
01:00PM 38.3149 -19.3506 253° West  Level Estimated
01:01PM 38.2761 -19.5074 253° West  Level Estimated
01:02PM 38.2370 -19.6641 252° West  Level Estimated
01:03PM 38.1977 -19.8206 252° West  Level Estimated
01:04PM 38.1582 -19.9769 252° West  Level Estimated
01:05PM 38.1185 -20.1331 252° West  Level Estimated
01:06PM 38.0785 -20.2891 252° West  Level Estimated
01:07PM 38.0384 -20.4449 252° West  Level Estimated
01:08PM 37.9981 -20.6005 252° West  Level Estimated
01:09PM 37.9576 -20.7560 252° West  Level Estimated
01:10PM 37.9168 -20.9113 252° West  Level Estimated
01:10PM 37.8530 -20.9360 252° West 459 528 36,000  Level FlightAware
01:10PM 37.8390 -21.0190 258° West 459 528 36,000  Level FlightAware
01:11PM 37.8759 -21.0665 252° West  Level Estimated
01:11PM 37.8190 -21.1390 258° West 459 528 36,000  Level FlightAware
01:12PM 37.7900 -21.3190 259° West 459 528 36,000  Level FlightAware
01:13PM 37.7640 -21.4760 258° West 459 528 36,000  Level FlightAware
01:14PM 37.7480 -21.5720 258° West 459 528 36,000  Level FlightAware
01:16PM 37.7110 -21.7940 258° West 458 527 36,000  Level FlightAware
01:16PM 37.6840 -21.9490 258° West 458 527 36,000  Level FlightAware
01:17PM 37.6730 -22.0170 258° West 457 526 36,000  Level FlightAware
01:18PM 37.6510 -22.1440 258° West 456 525 36,000  Level FlightAware
01:18PM 37.6360 -22.2320 258° West 455 524 36,000  Level FlightAware
01:19PM 37.6110 -22.3710 257° West 455 524 36,000  Level FlightAware
01:20PM 37.5990 -22.4400 258° West 454 522 36,000  Level FlightAware
01:20PM 37.5790 -22.5520 257° West 453 521 36,000  Level FlightAware
01:21PM 37.5410 -22.7660 257° West 452 520 36,000  Level FlightAware
01:22PM 37.5250 -22.8570 258° West 453 521 36,000  Level FlightAware
01:22PM 37.5140 -22.9170 257° West 453 521 36,000  Level FlightAware
01:23PM 37.4930 -23.0340 257° West 453 521 36,000  Level FlightAware
01:24PM 37.4770 -23.1220 257° West 453 521 36,000  Level FlightAware
01:24PM 37.4670 -23.1770 257° West 452 520 36,000  Level FlightAware
01:25PM 37.4400 -23.3260 257° West 451 519 36,000  Level FlightAware
01:26PM 37.4180 -23.4440 257° West 450 518 36,000  Level FlightAware
01:27PM 37.3950 -23.5710 257° West 449 517 36,000  Level FlightAware
01:27PM 37.3740 -23.6780 256° West 450 518 36,000  Level FlightAware
01:28PM 37.3510 -23.8030 257° West 451 519 36,000  Level FlightAware
01:29PM 37.3310 -23.9070 256° West 452 520 36,000  Level FlightAware
01:30PM 37.3090 -24.0250 257° West 453 521 36,000  Level FlightAware
01:31PM 37.2750 -24.2020 256° West 448 516 36,000  Level FlightAware
01:31PM 37.2540 -24.3140 257° West 447 514 36,000  Level FlightAware
01:33PM 37.2210 -24.4800 256° West 445 512 36,000  Level FlightAware
01:33PM 37.1990 -24.5940 256° West 444 511 36,000  Level FlightAware
01:34PM 37.1820 -24.6810 256° West 446 513 36,000  Level FlightAware
01:35PM 37.1620 -24.7820 256° West 447 514 36,000  Level FlightAware
01:35PM 37.1400 -24.8960 256° West 445 512 36,000  Level FlightAware
01:36PM 37.1230 -24.9810 256° West 444 511 36,000  Level FlightAware
01:37PM 37.1030 -25.0810 256° West 443 510 36,000 60 Level FlightAware
01:37PM 37.0820 -25.1840 256° West 443 510 36,100 660 Climbing FlightAware
01:38PM 37.0590 -25.2970 256° West 435 501 37,000 780 Climbing FlightAware
01:39PM 37.0370 -25.4070 256° West 447 514 37,300 360 Climbing FlightAware
01:39PM 37.0170 -25.5050 256° West 449 517 37,600 480 Climbing FlightAware
01:40PM 36.9960 -25.6040 255° West 449 517 38,000 240 Climbing FlightAware
01:41PM 36.9720 -25.7240 256° West 447 514 38,000  Level FlightAware
01:42PM 36.9490 -25.8330 255° West 445 512 38,000  Level FlightAware
01:42PM 36.9290 -25.9320 256° West 444 511 38,000  Level FlightAware
01:43PM 36.9060 -26.0410 255° West 443 510 38,000  Level FlightAware
01:44PM 36.8830 -26.1510 255° West 441 507 38,000  Level FlightAware
01:44PM 36.8640 -26.2390 255° West 441 507 38,000  Level FlightAware
01:45PM 36.8390 -26.3570 255° West 441 507 38,000  Level FlightAware
01:46PM 36.8060 -26.5100 255° West 442 509 38,000  Level FlightAware
01:47PM 36.7880 -26.5970 256° West 442 509 38,000  Level FlightAware
01:48PM 36.7650 -26.7050 255° West 442 509 38,000  Level FlightAware
01:48PM 36.7460 -26.7920 255° West 442 509 38,000  Level FlightAware
01:49PM 36.7250 -26.8880 255° West 441 507 38,000  Level FlightAware
01:50PM 36.7000 -27.0010 255° West 440 506 38,000  Level FlightAware
01:50PM 36.6790 -27.0980 255° West 441 507 38,000  Level FlightAware
01:51PM 36.6570 -27.1990 255° West 443 510 38,000  Level FlightAware
01:52PM 36.6300 -27.3180 254° West 444 511 38,000  Level FlightAware
01:52PM 36.6110 -27.4040 255° West 443 510 38,000  Level FlightAware
01:53PM 36.5890 -27.5030 255° West 443 510 38,000  Level FlightAware
01:54PM 36.5620 -27.6240 255° West 442 509 38,000  Level FlightAware
01:55PM 36.5360 -27.7370 254° West 441 507 38,000  Level FlightAware
01:55PM 36.5110 -27.8470 254° West 440 506 38,000  Level FlightAware
01:56PM 36.4890 -27.9460 255° West 441 507 38,000  Level FlightAware
01:57PM 36.4640 -28.0550 254° West 442 509 38,000  Level FlightAware
01:57PM 36.4410 -28.1540 254° West 443 510 38,000  Level FlightAware
01:58PM 36.4190 -28.2520 254° West 444 511 38,000  Level FlightAware
01:59PM 36.3940 -28.3610 254° West 445 512 38,000  Level FlightAware
01:59PM 36.3750 -28.4420 254° West 445 512 38,000  Level FlightAware
02:01PM 36.3440 -28.5730 254° West 448 516 38,000  Level FlightAware
02:01PM 36.3130 -28.7050 254° West 446 513 38,000  Level FlightAware
02:02PM 36.2780 -28.8550 254° West 443 510 38,000  Level FlightAware
02:03PM 36.2500 -28.9730 254° West 444 511 38,000  Level FlightAware
02:04PM 36.2250 -29.0760 253° West 444 511 38,000  Level FlightAware
02:04PM 36.2000 -29.1800 253° West 448 516 38,000  Level FlightAware
02:05PM 36.1750 -29.2830 253° West 448 516 38,000  Level FlightAware
02:06PM 36.1490 -29.3920 254° West 449 517 38,000  Level FlightAware
02:07PM 36.1270 -29.4820 253° West 449 517 38,000  Level FlightAware
02:07PM 36.1040 -29.5790 254° West 449 517 38,000  Level FlightAware
02:08PM 36.0800 -29.6740 253° West 449 517 38,000  Level FlightAware
02:09PM 36.0400 -29.8400 253° West 38,000  Level FlightAware
02:10PM 35.9990 -30.0030 253° West 449 517 38,000  Level FlightAware
02:11PM 35.9370 -30.1780 246° West 452 520 38,000  Level FlightAware
02:12PM 36.0000 -30.0000 247° West 479 551 38,000  Level ETMS Enhanced Traffic Management System
02:12PM 35.8950 -30.3050 248° West 457 526 38,000  Level FlightAware
02:13PM 35.8620 -30.4010 247° West 457 526 38,000  Level FlightAware
02:13PM 35.8290 -30.4960 247° West 458 527 38,000  Level FlightAware
02:14PM 35.7960 -30.5920 247° West 460 529 38,000  Level FlightAware
02:15PM 35.7390 -30.7550 247° West 460 529 38,000  Level FlightAware
02:16PM 35.6990 -30.8680 246° West 458 527 38,000  Level FlightAware
02:17PM 35.6690 -30.9530 247° West 458 527 38,000  Level FlightAware
02:17PM 35.6390 -31.0400 247° West 38,000  Level FlightAware
02:19PM 35.5256 -31.3581 246° West 479 551 38,000  Level FlightAware Transoceanic
02:20PM 35.4720 -31.5080 246° West 479 551 38,000  Level FlightAware Transoceanic
02:20PM 35.4970 -31.4390 246° West 454 522 38,000  Level FlightAware
02:21PM 35.4710 -31.5130 247° West 455 524 38,000  Level FlightAware
02:21PM 35.4380 -31.6100 247° West 455 524 38,000 600 Level FlightAware
02:22PM 35.3880 -31.7430 245° Southwest 461 531 39,000 600 Climbing FlightAware
02:23PM 35.3500 -31.8500 246° West 463 533 39,000  Level FlightAware
02:24PM 35.3070 -31.9660 246° West 460 529 39,000  Level FlightAware
02:24PM 35.2810 -32.0390 246° West 460 529 39,000  Level FlightAware
02:25PM 35.2430 -32.1400 245° Southwest 459 528 39,000  Level FlightAware
02:25PM 35.2110 -32.2280 246° West 459 528 39,000  Level FlightAware
02:26PM 35.1670 -32.3480 246° West 459 528 39,000  Level FlightAware
02:27PM 35.1350 -32.4350 246° West 465 535 39,000  Level FlightAware
02:28PM 35.1070 -32.5070 245° Southwest 465 535 39,000  Level FlightAware
02:28PM 35.0700 -32.6050 245° Southwest 465 535 39,000  Level FlightAware
02:29PM 35.0420 -32.6780 245° Southwest 465 535 39,000  Level FlightAware
02:30PM 34.9920 -32.8070 245° Southwest 465 535 39,000  Level FlightAware
02:31PM 34.9550 -32.9040 245° Southwest 465 535 39,000  Level FlightAware
02:31PM 34.9270 -32.9790 246° West 465 535 39,000  Level FlightAware
02:32PM 34.8980 -33.0540 245° Southwest 465 535 39,000  Level FlightAware
02:33PM 34.8610 -33.1510 245° Southwest 465 535 39,000  Level FlightAware
02:34PM 34.8240 -33.2480 245° Southwest 465 535 39,000  Level FlightAware
02:34PM 34.7960 -33.3200 245° Southwest 465 535 39,000  Level FlightAware
02:35PM 34.7590 -33.4170 245° Southwest 465 535 39,000  Level FlightAware
02:36PM 34.7310 -33.4900 245° Southwest 465 535 39,000  Level FlightAware
02:36PM 34.6940 -33.5860 245° Southwest 465 535 39,000  Level FlightAware
02:39PM 34.5830 -33.8751 245° Southwest  Level FlightAware Approximate
02:40PM 34.5282 -34.0170 245° Southwest  Level FlightAware Approximate
02:41PM 34.4732 -34.1587 245° Southwest  Level FlightAware Approximate
02:42PM 34.4180 -34.3002 245° Southwest  Level FlightAware Approximate
02:43PM 34.3627 -34.4416 245° Southwest  Level FlightAware Approximate
02:44PM 34.3072 -34.5827 245° Southwest  Level FlightAware Approximate
02:45PM 34.2516 -34.7237 245° Southwest  Level FlightAware Approximate
02:46PM 34.1958 -34.8644 244° Southwest  Level FlightAware Approximate
02:47PM 34.1398 -35.0050 244° Southwest  Level FlightAware Approximate
02:48PM 34.0836 -35.1454 244° Southwest  Level FlightAware Approximate
02:49PM 34.0274 -35.2856 244° Southwest  Level FlightAware Approximate
02:50PM 33.9709 -35.4257 244° Southwest  Level FlightAware Approximate
02:51PM 33.9143 -35.5655 244° Southwest  Level FlightAware Approximate
02:52PM 33.8576 -35.7052 244° Southwest  Level FlightAware Approximate
02:53PM 33.8006 -35.8446 244° Southwest  Level FlightAware Approximate
02:54PM 33.7435 -35.9839 244° Southwest  Level FlightAware Approximate
02:55PM 33.6863 -36.1230 244° Southwest  Level FlightAware Approximate
02:56PM 33.6289 -36.2619 244° Southwest  Level FlightAware Approximate
02:57PM 33.5714 -36.4007 244° Southwest  Level FlightAware Approximate
02:58PM 33.5137 -36.5392 243° Southwest  Level FlightAware Approximate
02:59PM 33.4558 -36.6776 243° Southwest  Level FlightAware Approximate
03:00PM 33.3978 -36.8157 243° Southwest  Level FlightAware Approximate
03:01PM 33.3397 -36.9537 243° Southwest  Level FlightAware Approximate
03:02PM 33.2814 -37.0915 243° Southwest  Level FlightAware Approximate
03:03PM 33.2229 -37.2291 243° Southwest  Level FlightAware Approximate
03:04PM 33.1643 -37.3666 243° Southwest  Level FlightAware Approximate
03:05PM 33.1055 -37.5038 243° Southwest  Level FlightAware Approximate
03:06PM 33.0466 -37.6409 243° Southwest  Level FlightAware Approximate
03:07PM 32.9875 -37.7778 243° Southwest  Level FlightAware Approximate
03:08PM 32.9283 -37.9145 243° Southwest  Level FlightAware Approximate
03:09PM 32.8690 -38.0510 243° Southwest  Level FlightAware Approximate
03:10PM 32.8095 -38.1874 243° Southwest  Level FlightAware Approximate
03:11PM 32.7498 -38.3235 243° Southwest  Level FlightAware Approximate
03:12PM 32.6900 -38.4595 242° Southwest  Level FlightAware Approximate
03:13PM 32.6300 -38.5953 242° Southwest  Level FlightAware Approximate
03:14PM 32.5699 -38.7309 242° Southwest  Level FlightAware Approximate
03:15PM 32.5097 -38.8663 242° Southwest  Level FlightAware Approximate
03:16PM 32.4493 -39.0016 242° Southwest  Level FlightAware Approximate
03:17PM 32.3891 -39.1369 242° Southwest  Level FlightAware Approximate
03:18PM 32.3288 -39.2720 242° Southwest  Level FlightAware Approximate
03:19PM 32.2684 -39.4069 242° Southwest  Level FlightAware Approximate
03:20PM 32.2078 -39.5416 242° Southwest  Level FlightAware Approximate
03:21PM 32.1470 -39.6762 242° Southwest  Level FlightAware Approximate
03:22PM 32.0862 -39.8106 242° Southwest  Level FlightAware Approximate
03:23PM 32.0251 -39.9448 242° Southwest  Level FlightAware Approximate
03:24PM 31.9586 -40.0751 237° Southwest  Level FlightAware Approximate
03:25PM 31.8881 -40.2025 237° Southwest  Level FlightAware Approximate
03:26PM 31.8174 -40.3297 237° Southwest  Level FlightAware Approximate
03:27PM 31.7467 -40.4567 237° Southwest  Level FlightAware Approximate
03:28PM 31.6758 -40.5835 237° Southwest  Level FlightAware Approximate
03:29PM 31.6048 -40.7101 237° Southwest  Level FlightAware Approximate
03:29PM 32.0000 -40.0000 238° Southwest 465 535 39,000  Level New York Oceanic (ODAPS)
03:30PM 31.5336 -40.8366 237° Southwest  Level FlightAware Approximate
03:31PM 31.4641 -40.9641 238° Southwest  Level FlightAware Approximate
03:32PM 31.3950 -41.0919 238° Southwest  Level FlightAware Approximate
03:33PM 31.3257 -41.2194 238° Southwest  Level FlightAware Approximate
03:34PM 31.2563 -41.3468 238° Southwest  Level FlightAware Approximate
03:35PM 31.1868 -41.4740 237° Southwest  Level FlightAware Approximate
03:36PM 30.8897 -42.0449 237° Southwest 465 535 39,000  Level FlightAware Transoceanic
03:37PM 30.8192 -42.1711 237° Southwest 465 535 39,000  Level FlightAware Transoceanic
03:38PM 30.7486 -42.2971 237° Southwest 465 535 39,000  Level FlightAware Transoceanic
03:39PM 30.6779 -42.4230 237° Southwest 465 535 39,000  Level FlightAware Transoceanic
03:40PM 30.6071 -42.5486 237° Southwest 465 535 39,000  Level FlightAware Transoceanic
03:41PM 30.5361 -42.6741 237° Southwest 465 535 39,000  Level FlightAware Transoceanic
03:42PM 30.4651 -42.7994 237° Southwest 465 535 39,000  Level FlightAware Transoceanic
03:43PM 30.3939 -42.9245 237° Southwest 465 535 39,000  Level FlightAware Transoceanic
03:44PM 30.3226 -43.0494 236° Southwest 465 535 39,000  Level FlightAware Transoceanic
03:45PM 30.2511 -43.1741 236° Southwest 465 535 39,000  Level FlightAware Transoceanic
03:46PM 30.1796 -43.2987 236° Southwest 465 535 39,000  Level FlightAware Transoceanic
03:47PM 30.1079 -43.4231 236° Southwest 465 535 39,000  Level FlightAware Transoceanic
03:48PM 30.0362 -43.5473 236° Southwest 465 535 39,000  Level FlightAware Transoceanic
03:49PM 29.9643 -43.6713 236° Southwest 465 535 39,000  Level FlightAware Transoceanic
03:50PM 29.8923 -43.7951 236° Southwest 465 535 39,000  Level FlightAware Transoceanic
03:51PM 29.8201 -43.9188 236° Southwest 465 535 39,000  Level FlightAware Transoceanic
03:52PM 29.7479 -44.0423 236° Southwest 465 535 39,000  Level FlightAware Transoceanic
03:53PM 29.6755 -44.1656 236° Southwest 465 535 39,000  Level FlightAware Transoceanic
03:54PM 29.6031 -44.2887 236° Southwest 465 535 39,000  Level FlightAware Transoceanic
03:55PM 29.5305 -44.4116 236° Southwest 465 535 39,000  Level FlightAware Transoceanic
03:56PM 29.4578 -44.5344 236° Southwest 465 535 39,000  Level FlightAware Transoceanic
03:57PM 29.3850 -44.6570 236° Southwest 465 535 39,000  Level FlightAware Transoceanic
03:58PM 29.3121 -44.7794 236° Southwest 465 535 39,000  Level FlightAware Transoceanic
03:59PM 29.2390 -44.9016 236° Southwest 465 535 39,000  Level FlightAware Transoceanic
04:00PM 29.1659 -45.0237 236° Southwest 465 535 39,000  Level FlightAware Transoceanic
04:01PM 29.0926 -45.1456 235° Southwest 465 535 39,000  Level FlightAware Transoceanic
04:02PM 29.0193 -45.2673 235° Southwest 465 535 39,000  Level FlightAware Transoceanic
04:03PM 28.9458 -45.3889 235° Southwest 465 535 39,000  Level FlightAware Transoceanic
04:04PM 28.8722 -45.5103 235° Southwest 465 535 39,000  Level FlightAware Transoceanic
04:05PM 28.7985 -45.6315 235° Southwest 465 535 39,000  Level FlightAware Transoceanic
04:06PM 28.7247 -45.7525 235° Southwest 465 535 39,000  Level FlightAware Transoceanic
04:07PM 28.6508 -45.8734 235° Southwest 465 535 39,000  Level FlightAware Transoceanic
04:08PM 28.5768 -45.9941 235° Southwest 465 535 39,000  Level FlightAware Transoceanic
04:09PM 28.5027 -46.1146 235° Southwest 465 535 39,000  Level FlightAware Transoceanic
04:10PM 28.4285 -46.2349 235° Southwest 465 535 39,000  Level FlightAware Transoceanic
04:11PM 28.3541 -46.3551 235° Southwest 465 535 39,000  Level FlightAware Transoceanic
04:12PM 28.2797 -46.4751 235° Southwest 465 535 39,000  Level FlightAware Transoceanic
04:13PM 28.2052 -46.5950 235° Southwest 465 535 39,000  Level FlightAware Transoceanic
04:14PM 28.1305 -46.7147 235° Southwest 465 535 39,000  Level FlightAware Transoceanic
04:15PM 28.0558 -46.8342 235° Southwest 465 535 39,000  Level FlightAware Transoceanic
04:16PM 27.9809 -46.9535 235° Southwest 465 535 39,000  Level FlightAware Transoceanic
04:17PM 27.9060 -47.0727 235° Southwest 465 535 39,000  Level FlightAware Transoceanic
04:18PM 27.8309 -47.1917 234° Southwest 465 535 39,000  Level FlightAware Transoceanic
04:19PM 27.7558 -47.3106 234° Southwest 465 535 39,000  Level FlightAware Transoceanic
04:20PM 27.6805 -47.4293 234° Southwest 465 535 39,000  Level FlightAware Transoceanic
04:21PM 27.6051 -47.5478 234° Southwest 465 535 39,000  Level FlightAware Transoceanic
04:22PM 27.5297 -47.6662 234° Southwest 465 535 39,000  Level FlightAware Transoceanic
04:23PM 27.4541 -47.7844 234° Southwest 465 535 39,000  Level FlightAware Transoceanic
04:24PM 27.3784 -47.9024 234° Southwest 465 535 39,000  Level FlightAware Transoceanic
04:25PM 27.3027 -48.0203 234° Southwest 465 535 39,000  Level FlightAware Transoceanic
04:26PM 27.2268 -48.1380 234° Southwest 465 535 39,000  Level FlightAware Transoceanic
04:27PM 27.1509 -48.2556 234° Southwest 465 535 39,000  Level FlightAware Transoceanic
04:28PM 27.0748 -48.3730 234° Southwest 465 535 39,000  Level FlightAware Transoceanic
04:29PM 26.9986 -48.4902 234° Southwest 465 535 39,000  Level FlightAware Transoceanic
04:30PM 26.9224 -48.6073 234° Southwest 465 535 39,000  Level FlightAware Transoceanic
04:31PM 26.8461 -48.7242 234° Southwest 465 535 39,000  Level FlightAware Transoceanic
04:32PM 26.7696 -48.8409 234° Southwest 465 535 39,000  Level FlightAware Transoceanic
04:33PM 26.6931 -48.9576 234° Southwest 465 535 39,000  Level FlightAware Transoceanic
04:34PM 26.6164 -49.0740 234° Southwest 465 535 39,000  Level FlightAware Transoceanic
04:35PM 26.5397 -49.1903 234° Southwest 465 535 39,000  Level FlightAware Transoceanic
04:36PM 26.4629 -49.3064 234° Southwest 465 535 39,000  Level FlightAware Transoceanic
04:37PM 26.3860 -49.4224 233° Southwest 465 535 39,000  Level FlightAware Transoceanic
04:38PM 26.3090 -49.5382 233° Southwest 465 535 39,000  Level FlightAware Transoceanic
04:39PM 26.2319 -49.6539 233° Southwest 465 535 39,000  Level FlightAware Transoceanic
04:40PM 26.1547 -49.7694 233° Southwest 465 535 39,000  Level FlightAware Transoceanic
04:41PM 26.0774 -49.8848 233° Southwest 465 535 39,000  Level FlightAware Transoceanic
04:42PM 26.0000 -50.0000 224° Southwest 465 535 39,000  Level FlightAware Transoceanic
04:43PM 25.9094 -50.0986 224° Southwest 465 535 39,000  Level FlightAware Transoceanic
04:44PM 25.8187 -50.1971 224° Southwest 465 535 39,000  Level FlightAware Transoceanic
04:45PM 25.7280 -50.2954 224° Southwest 465 535 39,000 540 Level FlightAware Transoceanic
04:45PM 32.0000 -40.0000 238° Southwest 463 533 40,000  Climbing New York Oceanic (ODAPS)
04:46PM 25.6372 -50.3936 224° Southwest 465 535 39,000 -840 Descending FlightAware Transoceanic
04:47PM 25.5464 -50.4916 224° Southwest 465 535 39,000  Level FlightAware Transoceanic
04:48PM 25.4554 -50.5895 224° Southwest 465 535 39,000 840 Level FlightAware Transoceanic
04:48PM 26.0000 -50.0000 224° Southwest 455 524 40,000  Climbing New York Oceanic (ODAPS)
04:49PM 25.3644 -50.6873 224° Southwest 465 535 39,000 -540 Descending FlightAware Transoceanic
04:50PM 25.2734 -50.7849 224° Southwest 465 535 39,000  Level FlightAware Transoceanic
04:51PM 25.1823 -50.8823 224° Southwest 465 535 39,000 480 Level FlightAware Transoceanic
04:52PM 25.0803 -50.9910 224° Southwest 463 533 40,000 480 Climbing FlightAware Transoceanic
04:53PM 24.9880 -51.0893 224° Southwest 463 533 40,000  Level FlightAware Transoceanic
04:54PM 24.8171 -51.2706 224° Southwest 455 524 40,000  Level FlightAware Transoceanic
04:55PM 24.7257 -51.3673 224° Southwest 455 524 40,000  Level FlightAware Transoceanic
04:56PM 24.6342 -51.4639 224° Southwest 455 524 40,000  Level FlightAware Transoceanic
04:57PM 24.5427 -51.5603 224° Southwest 455 524 40,000  Level FlightAware Transoceanic
04:58PM 24.4510 -51.6566 224° Southwest 455 524 40,000  Level FlightAware Transoceanic
04:59PM 24.3594 -51.7528 224° Southwest 455 524 40,000  Level FlightAware Transoceanic
05:00PM 24.2676 -51.8488 224° Southwest 455 524 40,000  Level FlightAware Transoceanic
05:01PM 24.1758 -51.9447 224° Southwest 455 524 40,000  Level FlightAware Transoceanic
05:02PM 24.0840 -52.0404 224° Southwest 455 524 40,000  Level FlightAware Transoceanic
05:03PM 23.9920 -52.1360 224° Southwest 455 524 40,000  Level FlightAware Transoceanic
05:04PM 23.9000 -52.2315 223° Southwest 455 524 40,000  Level FlightAware Transoceanic
05:05PM 23.8080 -52.3268 223° Southwest 455 524 40,000  Level FlightAware Transoceanic
05:06PM 23.7159 -52.4220 223° Southwest 455 524 40,000  Level FlightAware Transoceanic
05:07PM 23.6238 -52.5171 223° Southwest 455 524 40,000  Level FlightAware Transoceanic
05:08PM 23.5315 -52.6120 223° Southwest 455 524 40,000  Level FlightAware Transoceanic
05:09PM 23.4393 -52.7068 223° Southwest 455 524 40,000  Level FlightAware Transoceanic
05:10PM 23.3470 -52.8014 223° Southwest 455 524 40,000  Level FlightAware Transoceanic
05:11PM 23.2546 -52.8960 223° Southwest 455 524 40,000  Level FlightAware Transoceanic
05:12PM 23.1621 -52.9904 223° Southwest 455 524 40,000  Level FlightAware Transoceanic
05:13PM 23.0696 -53.0846 223° Southwest 455 524 40,000  Level FlightAware Transoceanic
05:14PM 22.9771 -53.1788 223° Southwest 455 524 40,000  Level FlightAware Transoceanic
05:15PM 22.8845 -53.2728 223° Southwest 455 524 40,000  Level FlightAware Transoceanic
05:16PM 22.7918 -53.3667 223° Southwest 455 524 40,000  Level FlightAware Transoceanic
05:17PM 22.6991 -53.4604 223° Southwest 455 524 40,000  Level FlightAware Transoceanic
05:18PM 22.6063 -53.5541 223° Southwest 455 524 40,000  Level FlightAware Transoceanic
05:19PM 22.5135 -53.6476 223° Southwest 455 524 40,000  Level FlightAware Transoceanic
05:20PM 22.4206 -53.7409 223° Southwest 455 524 40,000  Level FlightAware Transoceanic
05:21PM 22.3277 -53.8342 223° Southwest 455 524 40,000  Level FlightAware Transoceanic
05:22PM 22.2347 -53.9273 223° Southwest 455 524 40,000  Level FlightAware Transoceanic
05:23PM 22.1416 -54.0203 223° Southwest 455 524 40,000  Level FlightAware Transoceanic
05:24PM 22.0485 -54.1132 223° Southwest 455 524 40,000  Level FlightAware Transoceanic
05:25PM 21.9554 -54.2060 223° Southwest 455 524 40,000  Level FlightAware Transoceanic
05:26PM 21.8622 -54.2986 223° Southwest 455 524 40,000  Level FlightAware Transoceanic
05:27PM 21.7689 -54.3911 223° Southwest 455 524 40,000  Level FlightAware Transoceanic
05:28PM 21.6756 -54.4835 223° Southwest 455 524 40,000  Level FlightAware Transoceanic
05:29PM 21.5823 -54.5758 223° Southwest 455 524 40,000  Level FlightAware Transoceanic
05:30PM 21.4889 -54.6679 223° Southwest 455 524 40,000  Level FlightAware Transoceanic
05:31PM 21.3954 -54.7600 222° Southwest 455 524 40,000  Level FlightAware Transoceanic
05:32PM 21.3019 -54.8519 222° Southwest 455 524 40,000  Level FlightAware Transoceanic
05:33PM 21.2084 -54.9437 222° Southwest 455 524 40,000  Level FlightAware Transoceanic
05:34PM 21.1148 -55.0354 222° Southwest 455 524 40,000  Level FlightAware Transoceanic
05:35PM 21.0211 -55.1269 222° Southwest 455 524 40,000  Level FlightAware Transoceanic
05:36PM 20.9274 -55.2184 222° Southwest 455 524 40,000  Level FlightAware Transoceanic
05:37PM 20.8337 -55.3097 222° Southwest 455 524 40,000  Level FlightAware Transoceanic
05:38PM 20.7399 -55.4010 222° Southwest 455 524 40,000  Level FlightAware Transoceanic
05:39PM 20.6460 -55.4921 222° Southwest 455 524 40,000  Level FlightAware Transoceanic
05:40PM 20.5521 -55.5831 222° Southwest 455 524 40,000  Level FlightAware Transoceanic
05:41PM 20.4582 -55.6740 222° Southwest 455 524 40,000  Level FlightAware Transoceanic
05:42PM 20.3642 -55.7648 222° Southwest 455 524 40,000  Level FlightAware Transoceanic
05:43PM 20.2702 -55.8554 222° Southwest 455 524 40,000  Level FlightAware Transoceanic
05:44PM 20.1761 -55.9460 222° Southwest 455 524 40,000  Level FlightAware Transoceanic
05:45PM 20.0820 -56.0365 222° Southwest 455 524 40,000  Level FlightAware Transoceanic
05:46PM 19.9878 -56.1268 222° Southwest 455 524 40,000  Level FlightAware Transoceanic
05:47PM 19.8936 -56.2170 222° Southwest 455 524 40,000  Level FlightAware Transoceanic
05:48PM 19.7993 -56.3072 222° Southwest 455 524 40,000  Level FlightAware Transoceanic
05:49PM 19.7050 -56.3972 222° Southwest 455 524 40,000  Level FlightAware Transoceanic
05:50PM 19.6106 -56.4871 222° Southwest 455 524 40,000  Level FlightAware Transoceanic
05:51PM 19.5162 -56.5769 222° Southwest 455 524 40,000  Level FlightAware Transoceanic
05:52PM 19.4218 -56.6666 222° Southwest 455 524 40,000  Level FlightAware Transoceanic
05:53PM 19.3273 -56.7562 222° Southwest 455 524 40,000  Level FlightAware Transoceanic
05:54PM 19.2328 -56.8457 222° Southwest 455 524 40,000  Level FlightAware Transoceanic
05:55PM 19.1382 -56.9351 222° Southwest 455 524 40,000  Level FlightAware Transoceanic
05:56PM 19.0436 -57.0244 222° Southwest 455 524 40,000  Level FlightAware Transoceanic
05:57PM 18.9489 -57.1136 222° Southwest 455 524 40,000  Level FlightAware Transoceanic
05:58PM 18.8542 -57.2027 222° Southwest 455 524 40,000  Level FlightAware Transoceanic
05:59PM 18.7595 -57.2916 222° Southwest 455 524 40,000  Level FlightAware Transoceanic
06:00PM 18.6647 -57.3805 222° Southwest 455 524 40,000  Level FlightAware Transoceanic
06:01PM 18.5698 -57.4693 222° Southwest 455 524 40,000  Level FlightAware Transoceanic
06:02PM 18.4750 -57.5580 222° Southwest 455 524 40,000  Level FlightAware Transoceanic
06:03PM 18.3801 -57.6466 222° Southwest 455 524 40,000  Level FlightAware Transoceanic
06:04PM 18.2851 -57.7351 221° Southwest 455 524 40,000  Level FlightAware Transoceanic
06:05PM 18.1901 -57.8235 221° Southwest 455 524 40,000  Level FlightAware Transoceanic
06:06PM 18.0951 -57.9118 221° Southwest 455 524 40,000  Level FlightAware Transoceanic
06:07PM 18.0000 -58.0000 221° Southwest 455 524 40,000  Level FlightAware Transoceanic
06:08PM 17.9030 -58.0877 221° Southwest 455 524 40,000  Level FlightAware Transoceanic
06:09PM 17.8060 -58.1753 221° Southwest 455 524 40,000  Level FlightAware Transoceanic
06:10PM 17.7089 -58.2628 221° Southwest 455 524 40,000  Level FlightAware Transoceanic
06:11PM 17.6118 -58.3503 221° Southwest 455 524 40,000  Level FlightAware Transoceanic
06:12PM 17.5146 -58.4376 221° Southwest 455 524 40,000  Level FlightAware Transoceanic
06:13PM 17.4174 -58.5248 221° Southwest 455 524 40,000  Level FlightAware Transoceanic
06:14PM 17.3202 -58.6120 221° Southwest 455 524 40,000  Level FlightAware Transoceanic
06:15PM 17.2229 -58.6990 221° Southwest 455 524 40,000  Level FlightAware Transoceanic
06:16PM 17.1256 -58.7860 220° Southwest 455 524 40,000  Level FlightAware Transoceanic
06:17PM 17.0282 -58.8728 220° Southwest 455 524 40,000  Level FlightAware Transoceanic
06:17PM 17.2440 -58.7820 220° Southwest 452 520 40,000  Level FlightAware
06:17PM 17.1640 -58.8740 228° Southwest 455 524 40,000  Level FlightAware
06:18PM 17.1020 -58.9450 228° Southwest 456 525 40,000  Level FlightAware
06:19PM 17.0480 -59.0070 228° Southwest 456 525 40,000  Level FlightAware
06:19PM 16.9900 -59.0730 227° Southwest 456 525 40,000  Level FlightAware
06:20PM 16.9330 -59.1390 228° Southwest 455 524 40,000  Level FlightAware
06:21PM 16.8780 -59.2020 228° Southwest 455 524 40,000  Level FlightAware
06:21PM 16.8070 -59.2820 227° Southwest 456 525 40,000  Level FlightAware
06:22PM 16.7490 -59.3480 227° Southwest 456 525 40,000  Level FlightAware
06:23PM 16.6840 -59.4220 227° Southwest 458 527 40,000  Level FlightAware
06:24PM 16.6220 -59.4920 227° Southwest 460 529 40,000  Level FlightAware
06:24PM 16.5770 -59.5420 227° Southwest 461 531 40,000  Level FlightAware
06:25PM 16.5140 -59.6140 228° Southwest 460 529 40,000  Level FlightAware
06:26PM 16.4500 -59.6870 228° Southwest 460 529 40,000  Level FlightAware
06:26PM 16.3990 -59.7440 227° Southwest 460 529 40,000  Level FlightAware
06:27PM 16.3480 -59.8020 228° Southwest 459 528 40,000  Level FlightAware
06:27PM 16.2840 -59.8740 227° Southwest 461 531 40,000  Level FlightAware
06:28PM 16.2250 -59.9410 227° Southwest 461 531 40,000  Level FlightAware
06:29PM 16.1610 -60.0130 227° Southwest 461 531 40,000  Level FlightAware
06:30PM 16.0460 -60.1420 227° Southwest 460 529 40,000  Level FlightAware
06:31PM 15.9690 -60.2280 227° Southwest 460 529 40,000  Level FlightAware
06:32PM 15.9190 -60.2850 228° Southwest 461 531 40,000  Level FlightAware
06:32PM 15.8510 -60.3610 227° Southwest 461 531 40,000  Level FlightAware
06:33PM 15.7920 -60.4270 227° Southwest 461 531 40,000  Level FlightAware
06:34PM 15.7260 -60.5010 227° Southwest 461 531 40,000  Level FlightAware
06:35PM 15.6690 -60.5650 227° Southwest 461 531 40,000  Level FlightAware
06:35PM 15.6110 -60.6290 227° Southwest 460 529 40,000  Level FlightAware
06:36PM 15.5440 -60.7040 227° Southwest 461 531 40,000  Level FlightAware
06:37PM 15.4870 -60.7670 227° Southwest 462 532 40,000  Level FlightAware
06:37PM 15.4200 -60.8420 227° Southwest 462 532 40,000  Level FlightAware
06:38PM 15.3650 -60.9030 227° Southwest 462 532 40,000  Level FlightAware
06:39PM 15.2930 -60.9830 227° Southwest 461 531 40,000  Level FlightAware
06:40PM 15.2350 -61.0480 227° Southwest 461 531 40,000  Level FlightAware
06:40PM 15.1740 -61.1160 227° Southwest 460 529 40,000  Level FlightAware
06:41PM 15.1080 -61.1880 226° Southwest 459 528 40,000  Level FlightAware
06:42PM 15.0530 -61.2500 227° Southwest 460 529 40,000  Level FlightAware
06:42PM 14.9920 -61.3170 227° Southwest 461 531 40,000  Level FlightAware
06:43PM 14.9250 -61.3900 226° Southwest 462 532 40,000  Level FlightAware
06:44PM 14.8630 -61.4590 227° Southwest 463 533 40,000  Level FlightAware
06:44PM 14.8150 -61.5130 227° Southwest 463 533 40,000  Level FlightAware
06:45PM 14.7550 -61.5780 226° Southwest 464 534 40,000  Level FlightAware
06:46PM 14.6660 -61.6760 227° Southwest 464 534 40,000  Level FlightAware
06:47PM 14.6080 -61.7410 227° Southwest 464 534 40,000  Level FlightAware
06:47PM 14.5490 -61.8050 226° Southwest 465 535 40,000  Level FlightAware
06:48PM 14.4830 -61.8770 227° Southwest 466 536 40,000  Level FlightAware
06:49PM 14.4160 -61.9510 227° Southwest 466 536 40,000  Level FlightAware
06:49PM 14.3590 -62.0130 227° Southwest 466 536 40,000  Level FlightAware
06:50PM 14.3040 -62.0740 227° Southwest 466 536 40,000  Level FlightAware
06:51PM 14.2310 -62.1540 227° Southwest 467 537 40,000  Level FlightAware
06:52PM 14.1720 -62.2180 226° Southwest 467 537 40,000  Level FlightAware
06:52PM 14.1100 -62.2860 227° Southwest 467 537 40,000  Level FlightAware
06:53PM 14.0590 -62.3410 226° Southwest 467 537 40,000  Level FlightAware
06:54PM 13.9920 -62.4150 227° Southwest 467 537 40,000  Level FlightAware
06:54PM 13.9330 -62.4790 226° Southwest 466 536 40,000  Level FlightAware
06:55PM 13.8710 -62.5460 226° Southwest 466 536 40,000  Level FlightAware
06:56PM 13.8100 -62.6130 227° Southwest 468 539 40,000  Level FlightAware
06:56PM 13.7480 -62.6800 226° Southwest 469 540 40,000  Level FlightAware
06:57PM 13.6780 -62.7560 227° Southwest 470 541 40,000  Level FlightAware
06:58PM 13.6130 -62.8270 227° Southwest 471 542 40,000  Level FlightAware
06:59PM 13.5440 -62.9020 227° Southwest 471 542 40,000  Level FlightAware
06:59PM 13.4880 -62.9620 226° Southwest 471 542 40,000  Level FlightAware
07:00PM 13.3950 -63.0630 227° Southwest 471 542 40,000  Level FlightAware
07:01PM 13.3180 -63.1460 226° Southwest 471 542 40,000  Level FlightAware
07:02PM 13.2720 -63.1950 226° Southwest 471 542 40,000  Level FlightAware
07:03PM 13.1930 -63.2800 226° Southwest 469 540 40,000  Level FlightAware
07:03PM 13.1470 -63.3290 226° Southwest 469 540 40,000  Level FlightAware
07:04PM 13.1010 -63.3780 226° Southwest 469 540 40,000  Level FlightAware
07:05PM 13.0380 -63.4450 226° Southwest 469 540 40,000  Level FlightAware
07:05PM 12.9920 -63.4940 226° Southwest 469 540 40,000  Level FlightAware
07:06PM 12.9460 -63.5430 226° Southwest 469 540 40,000  Level FlightAware
07:07PM 12.8680 -63.6260 226° Southwest 469 540 40,000  Level FlightAware
07:07PM 12.8220 -63.6750 226° Southwest 469 540 40,000  Level FlightAware
07:08PM 12.7600 -63.7400 226° Southwest 469 540 40,000  Level FlightAware
07:09PM 12.7140 -63.7890 226° Southwest 469 540 40,000  Level FlightAware
07:10PM 12.6530 -63.8540 226° Southwest 469 540 40,000  Level FlightAware
07:10PM 12.6070 -63.9030 226° Southwest 469 540 40,000  Level FlightAware
07:11PM 12.5550 -63.9580 226° Southwest 469 540 40,000  Level FlightAware
07:12PM 12.4910 -64.0260 226° Southwest 469 540 40,000  Level FlightAware
07:14PM 12.3603 -64.2333 237° Southwest  Level FlightAware Approximate
07:15PM 12.2902 -64.3443 237° Southwest  Level FlightAware Approximate
07:16PM 12.2201 -64.4551 237° Southwest  Level FlightAware Approximate
07:17PM 12.1499 -64.5660 237° Southwest  Level FlightAware Approximate
07:18PM 12.0797 -64.6768 237° Southwest  Level FlightAware Approximate
07:19PM 12.0094 -64.7875 237° Southwest  Level FlightAware Approximate
07:20PM 11.9391 -64.8982 237° Southwest  Level FlightAware Approximate
07:21PM 11.8688 -65.0088 237° Southwest  Level FlightAware Approximate
07:22PM 11.7984 -65.1193 237° Southwest  Level FlightAware Approximate
07:23PM 11.7280 -65.2298 237° Southwest  Level FlightAware Approximate
07:24PM 11.6575 -65.3403 237° Southwest  Level FlightAware Approximate
07:25PM 11.5870 -65.4507 237° Southwest  Level FlightAware Approximate
07:26PM 11.5164 -65.5610 237° Southwest  Level FlightAware Approximate
07:27PM 11.4458 -65.6713 237° Southwest  Level FlightAware Approximate
07:28PM 11.3752 -65.7815 237° Southwest  Level FlightAware Approximate
07:29PM 11.3045 -65.8916 237° Southwest  Level FlightAware Approximate
07:30PM 11.2338 -66.0017 237° Southwest  Level FlightAware Approximate
07:31PM 11.1630 -66.1118 237° Southwest  Level FlightAware Approximate
07:32PM 11.0922 -66.2218 237° Southwest  Level FlightAware Approximate
07:33PM 11.0213 -66.3318 237° Southwest  Level FlightAware Approximate
07:34PM 10.9505 -66.4417 237° Southwest  Level FlightAware Approximate
07:34PM 11.0760 -66.9050 237° Southwest 471 542 40,000  Level FlightAware
07:35PM 11.0380 -66.9810 243° Southwest 473 544 40,000  Level FlightAware
07:36PM 10.9920 -67.0720 243° Southwest 472 543 40,000  Level FlightAware
07:36PM 10.9580 -67.1390 243° Southwest 472 543 40,000  Level FlightAware
07:37PM 10.9160 -67.2230 243° Southwest 472 543 40,000  Level FlightAware
07:37PM 10.8720 -67.3100 243° Southwest 472 543 40,000  Level FlightAware
07:38PM 10.8320 -67.3900 243° Southwest 472 543 40,000  Level FlightAware
07:39PM 10.7890 -67.4730 242° Southwest 474 545 40,000  Level FlightAware
07:40PM 10.7450 -67.5510 240° Southwest 476 548 40,000  Level FlightAware
07:40PM 10.7050 -67.6220 240° Southwest 477 549 40,000  Level FlightAware
07:41PM 10.6590 -67.7050 241° Southwest 479 551 40,000  Level FlightAware
07:42PM 10.6080 -67.7960 240° Southwest 479 551 40,000  Level FlightAware
07:43PM 10.5620 -67.8770 240° Southwest 479 551 40,000  Level FlightAware
07:43PM 10.5270 -67.9380 240° Southwest 479 551 40,000  Level FlightAware
07:44PM 10.4620 -68.0590 241° Southwest 478 550 40,000  Level FlightAware
07:44PM 10.4220 -68.1310 241° Southwest 478 550 40,000  Level FlightAware
07:45PM 10.3760 -68.2120 240° Southwest 478 550 40,000  Level FlightAware
07:46PM 10.3420 -68.2710 240° Southwest 478 550 40,000  Level FlightAware
07:47PM 10.2590 -68.4220 241° Southwest 480 552 40,000  Level FlightAware
07:48PM 10.2170 -68.4980 241° Southwest 480 552 40,000  Level FlightAware
07:48PM 10.1730 -68.5770 241° Southwest 480 552 40,000  Level FlightAware
07:49PM 10.1240 -68.6640 240° Southwest 480 552 40,000  Level FlightAware
07:50PM 10.0810 -68.7420 241° Southwest 479 551 40,000  Level FlightAware
07:50PM 10.0430 -68.8070 239° Southwest 479 551 40,000  Level FlightAware
07:51PM 9.9980 -68.8870 240° Southwest 479 551 40,000  Level FlightAware
07:52PM 9.9640 -68.9460 240° Southwest 479 551 40,000  Level FlightAware
07:53PM 9.9180 -69.0280 240° Southwest 479 551 40,000  Level FlightAware
07:53PM 9.8840 -69.0870 240° Southwest 479 551 40,000  Level FlightAware
07:54PM 9.8500 -69.1470 240° Southwest 479 551 40,000  Level FlightAware
07:55PM 9.8050 -69.2260 240° Southwest 479 551 40,000  Level FlightAware
07:55PM 9.7710 -69.2860 240° Southwest 479 551 40,000  Level FlightAware
07:56PM 9.7370 -69.3450 240° Southwest 479 551 40,000  Level FlightAware
07:57PM 9.6920 -69.4250 240° Southwest 479 551 40,000  Level FlightAware
07:57PM 9.6580 -69.4840 240° Southwest 479 551 40,000  Level FlightAware
07:58PM 9.6130 -69.5640 240° Southwest 479 551 40,000  Level FlightAware
07:59PM 9.5780 -69.6250 240° Southwest 479 551 40,000  Level FlightAware
08:00PM 9.5220 -69.7240 240° Southwest 479 551 40,000  Level FlightAware
08:02PM 9.3948 -69.9442 240° Southwest  Level Estimated
08:03PM 9.3296 -70.0571 240° Southwest  Level Estimated
08:04PM 9.2643 -70.1699 240° Southwest  Level Estimated
08:05PM 9.1989 -70.2827 240° Southwest  Level Estimated
08:06PM 9.1336 -70.3955 240° Southwest  Level Estimated
08:07PM 9.0681 -70.5082 240° Southwest  Level Estimated
08:08PM 9.0027 -70.6209 240° Southwest  Level Estimated
08:09PM 8.9372 -70.7335 240° Southwest  Level Estimated
08:10PM 8.8717 -70.8461 240° Southwest  Level Estimated
08:11PM 8.8062 -70.9586 239° Southwest  Level Estimated
08:12PM 8.7406 -71.0711 239° Southwest  Level Estimated
08:13PM 8.6750 -71.1836 239° Southwest  Level Estimated
08:14PM 8.6094 -71.2960 239° Southwest  Level Estimated
08:15PM 8.5437 -71.4084 239° Southwest  Level Estimated
08:16PM 8.4780 -71.5208 239° Southwest  Level Estimated
08:17PM 8.4122 -71.6331 239° Southwest  Level Estimated
08:18PM 8.3465 -71.7454 239° Southwest  Level Estimated
08:19PM 8.2807 -71.8576 239° Southwest  Level Estimated
08:20PM 8.2148 -71.9698 239° Southwest  Level Estimated
08:21PM 8.1490 -72.0819 239° Southwest  Level Estimated
08:22PM 8.0831 -72.1941 239° Southwest  Level Estimated
08:23PM 8.0171 -72.3062 239° Southwest  Level Estimated
08:24PM 7.9512 -72.4182 239° Southwest  Level Estimated
08:25PM 7.8852 -72.5302 239° Southwest  Level Estimated
08:26PM 7.8192 -72.6422 239° Southwest  Level Estimated
08:27PM 7.7531 -72.7541 239° Southwest  Level Estimated
08:27PM 7.5650 -73.0410 239° Southwest 485 558 40,000  Level FlightAware
08:28PM 7.5010 -73.1330 235° Southwest 487 560 40,000  Level FlightAware
08:28PM 7.4550 -73.1980 234° Southwest 488 562 40,000  Level FlightAware
08:29PM 7.3770 -73.2840 228° Southwest 489 563 40,000  Level FlightAware
08:29PM 7.3480 -73.3120 224° Southwest 489 563 40,000  Level FlightAware
08:31PM 7.2190 -73.4440 225° Southwest 488 562 40,000  Level FlightAware
08:31PM 7.1450 -73.5130 223° Southwest 491 565 40,000  Level FlightAware
08:32PM 7.0770 -73.5720 221° Southwest 491 565 40,000  Level FlightAware
08:33PM 7.0000 -73.6380 220° Southwest 492 566 40,000  Level FlightAware
08:34PM 6.9310 -73.6980 221° Southwest 490 564 40,000  Level FlightAware
08:34PM 6.8700 -73.7510 221° Southwest 488 562 40,000 -480 Level FlightAware
08:35PM 6.8020 -73.8110 221° Southwest 488 562 39,400 -1,800 Descending FlightAware
08:35PM 6.7300 -73.8770 222° Southwest 498 573 37,600 -1,800 Descending FlightAware
08:36PM 6.6840 -73.9590 241° Southwest 488 562 36,900 -1,620 Descending FlightAware
08:37PM 6.6700 -74.0540 262° West 490 564 35,300 -2,520 Descending FlightAware
08:38PM 6.6590 -74.1480 263° West 498 573 33,400 -1,800 Descending FlightAware
08:38PM 6.6500 -74.2230 263° West 498 573 33,000 -300 Descending FlightAware
08:39PM 6.6390 -74.3170 263° West 498 573 33,000  Level FlightAware
08:40PM 6.6300 -74.3880 263° West 498 573 33,000  Level FlightAware
08:40PM 6.6190 -74.4820 263° West 498 573 33,000  Level FlightAware
08:41PM 6.6100 -74.5520 263° West 498 573 33,000  Level FlightAware
08:42PM 6.5990 -74.6460 263° West 498 573 33,000  Level FlightAware
08:42PM 6.5900 -74.7180 263° West 498 573 33,000  Level FlightAware
08:43PM 6.5780 -74.8120 263° West 498 573 33,000  Level FlightAware
08:44PM 6.5700 -74.8830 264° West 498 573 33,000  Level FlightAware
08:45PM 6.5580 -74.9770 263° West 498 573 33,000  Level FlightAware
08:45PM 6.5500 -75.0470 263° West 498 573 33,000  Level FlightAware
08:46PM 6.5380 -75.1430 263° West 498 573 33,000  Level FlightAware
08:47PM 6.5290 -75.2150 263° West 498 573 33,000  Level FlightAware
08:47PM 6.5180 -75.3090 263° West 498 573 33,000  Level FlightAware
08:50PM 6.2640 -75.3910 198° South  Level Estimated
08:51PM 6.1645 -75.4231 198° South  Level Estimated
08:52PM 6.1645 -75.4231 166° South  Level Estimated
08:53PM 6.1645 -75.4231 166° South  Level Estimated
08:54PM 6.1645 -75.4231 166° South  Level Estimated
08:55PM 6.1645 -75.4231 166° South  Level Estimated